Аэропорт: Храброво. Калининград

ICAO: UMKK

METAR:
2018/05/20 23:00
UMKK 202300Z 34003MPS CAVOK 10/06 Q1027 R24/CLRD60 NOSIG RMK QFE769/1026
METAR:
2018/05/20 21:27
TAF TAF UMKK 201957Z 2021/2121 VRB01MPS CAVOK 
      TEMPO 2100/2105 3100 BR MIFG 
      BECMG 2109/2111 03007MPS 
      TEMPO 2111/2121 07005MPS SCT030